sensor_id;sensor_type;location;lat;lon;timestamp;temperature;humidity
1079;DHT22;528;47.872;11.478;2022-08-21T01:03:31;17.50;99.90
1079;DHT22;528;47.872;11.478;2022-08-21T01:06:04;17.50;99.90
1079;DHT22;528;47.872;11.478;2022-08-21T01:08:35;17.40;99.90
1079;DHT22;528;47.872;11.478;2022-08-21T01:11:04;17.40;99.90
1079;DHT22;528;47.872;11.478;2022-08-21T01:13:40;17.40;99.90
1079;DHT22;528;47.872;11.478;2022-08-21T01:16:15;17.30;99.90
1079;DHT22;528;47.872;11.478;2022-08-21T01:18:47;17.30;99.90
1079;DHT22;528;47.872;11.478;2022-08-21T01:21:20;17.20;99.90
1079;DHT22;528;47.872;11.478;2022-08-21T01:23:51;17.20;99.90
1079;DHT22;528;47.872;11.478;2022-08-21T01:26:25;17.10;99.90
1079;DHT22;528;47.872;11.478;2022-08-21T01:29:07;17.10;99.90
1079;DHT22;528;47.872;11.478;2022-08-21T01:31:41;17.00;99.90
1079;DHT22;528;47.872;11.478;2022-08-21T01:34:16;17.00;99.90
1079;DHT22;528;47.872;11.478;2022-08-21T01:36:59;17.00;99.90
1079;DHT22;528;47.872;11.478;2022-08-21T01:39:31;16.90;99.90
1079;DHT22;528;47.872;11.478;2022-08-21T01:42:16;16.90;99.90
1079;DHT22;528;47.872;11.478;2022-08-21T01:48:03;16.90;99.90
1079;DHT22;528;47.872;11.478;2022-08-21T01:50:41;16.90;99.90
1079;DHT22;528;47.872;11.478;2022-08-21T01:53:31;16.90;99.90
1079;DHT22;528;47.872;11.478;2022-08-21T01:56:27;16.90;99.90
1079;DHT22;528;47.872;11.478;2022-08-21T01:59:20;17.00;99.90
1079;DHT22;528;47.872;11.478;2022-08-21T02:02:06;16.90;99.90
1079;DHT22;528;47.872;11.478;2022-08-21T02:04:48;16.90;99.90
1079;DHT22;528;47.872;11.478;2022-08-21T02:07:27;17.00;99.90
1079;DHT22;528;47.872;11.478;2022-08-21T02:10:23;16.90;99.90
1079;DHT22;528;47.872;11.478;2022-08-21T02:13:07;16.90;99.90
1079;DHT22;528;47.872;11.478;2022-08-21T02:15:57;17.00;99.90
1079;DHT22;528;47.872;11.478;2022-08-21T02:21:54;16.90;99.90
1079;DHT22;528;47.872;11.478;2022-08-21T02:24:41;16.80;99.90
1079;DHT22;528;47.872;11.478;2022-08-21T02:27:49;16.90;99.90
1079;DHT22;528;47.872;11.478;2022-08-21T02:30:39;16.80;99.90
1079;DHT22;528;47.872;11.478;2022-08-21T02:33:41;16.80;99.90
1079;DHT22;528;47.872;11.478;2022-08-21T02:36:33;16.80;99.90
1079;DHT22;528;47.872;11.478;2022-08-21T02:39:19;16.70;99.90
1079;DHT22;528;47.872;11.478;2022-08-21T02:42:00;16.80;99.90
1079;DHT22;528;47.872;11.478;2022-08-21T02:48:13;16.70;99.90
1079;DHT22;528;47.872;11.478;2022-08-21T02:50:51;16.60;99.90
1079;DHT22;528;47.872;11.478;2022-08-21T02:53:26;16.60;99.90
1079;DHT22;528;47.872;11.478;2022-08-21T02:55:57;16.50;99.90
1079;DHT22;528;47.872;11.478;2022-08-21T02:58:38;16.50;99.90
1079;DHT22;528;47.872;11.478;2022-08-21T03:01:19;16.40;99.90
1079;DHT22;528;47.872;11.478;2022-08-21T03:04:04;16.40;99.90
1079;DHT22;528;47.872;11.478;2022-08-21T03:06:38;16.40;99.90
1079;DHT22;528;47.872;11.478;2022-08-21T03:09:44;16.40;99.90
1079;DHT22;528;47.872;11.478;2022-08-21T03:12:25;16.30;99.90
1079;DHT22;528;47.872;11.478;2022-08-21T03:15:01;16.30;99.90
1079;DHT22;528;47.872;11.478;2022-08-21T03:17:41;16.20;99.90
1079;DHT22;528;47.872;11.478;2022-08-21T03:20:32;16.30;99.90
1079;DHT22;528;47.872;11.478;2022-08-21T03:23:15;16.20;99.90
1079;DHT22;528;47.872;11.478;2022-08-21T03:26:00;16.20;99.90
1079;DHT22;528;47.872;11.478;2022-08-21T03:28:31;16.20;99.90
1079;DHT22;528;47.872;11.478;2022-08-21T03:31:06;16.10;99.90
1079;DHT22;528;47.872;11.478;2022-08-21T03:33:40;16.20;99.90
1079;DHT22;528;47.872;11.478;2022-08-21T03:36:27;16.20;99.90
1079;DHT22;528;47.872;11.478;2022-08-21T03:39:04;16.10;99.90
1079;DHT22;528;47.872;11.478;2022-08-21T03:42:08;16.10;99.90
1079;DHT22;528;47.872;11.478;2022-08-21T03:44:33;16.00;99.90
1079;DHT22;528;47.872;11.478;2022-08-21T03:47:01;16.00;99.90
1079;DHT22;528;47.872;11.478;2022-08-21T03:49:33;16.00;99.90
1079;DHT22;528;47.872;11.478;2022-08-21T03:52:08;16.00;99.90
1079;DHT22;528;47.872;11.478;2022-08-21T03:54:35;15.90;99.90
1079;DHT22;528;47.872;11.478;2022-08-21T03:57:08;15.90;99.90
1079;DHT22;528;47.872;11.478;2022-08-21T03:59:36;15.90;99.90
1079;DHT22;528;47.872;11.478;2022-08-21T04:02:10;15.90;99.90
1079;DHT22;528;47.872;11.478;2022-08-21T04:04:43;15.90;99.90
1079;DHT22;528;47.872;11.478;2022-08-21T04:07:15;15.90;99.90
1079;DHT22;528;47.872;11.478;2022-08-21T04:09:45;15.90;99.90
1079;DHT22;528;47.872;11.478;2022-08-21T04:12:22;15.80;99.90
1079;DHT22;528;47.872;11.478;2022-08-21T04:14:58;15.80;99.90
1079;DHT22;528;47.872;11.478;2022-08-21T04:17:29;15.80;99.90
1079;DHT22;528;47.872;11.478;2022-08-21T04:20:00;15.80;99.90
1079;DHT22;528;47.872;11.478;2022-08-21T04:22:32;15.70;99.90
1079;DHT22;528;47.872;11.478;2022-08-21T04:25:06;15.70;99.90
1079;DHT22;528;47.872;11.478;2022-08-21T04:27:42;15.70;99.90
1079;DHT22;528;47.872;11.478;2022-08-21T04:30:29;15.60;99.90
1079;DHT22;528;47.872;11.478;2022-08-21T04:33:15;15.70;99.90
1079;DHT22;528;47.872;11.478;2022-08-21T04:35:46;15.80;99.90
1079;DHT22;528;47.872;11.478;2022-08-21T04:38:21;15.70;99.90
1079;DHT22;528;47.872;11.478;2022-08-21T04:40:53;15.70;99.90
1079;DHT22;528;47.872;11.478;2022-08-21T04:43:23;15.60;99.90
1079;DHT22;528;47.872;11.478;2022-08-21T04:45:57;15.60;99.90
1079;DHT22;528;47.872;11.478;2022-08-21T04:48:28;15.50;99.90
1079;DHT22;528;47.872;11.478;2022-08-21T04:51:06;15.50;99.90
1079;DHT22;528;47.872;11.478;2022-08-21T04:53:52;15.50;99.90
1079;DHT22;528;47.872;11.478;2022-08-21T04:56:34;15.60;99.90
1079;DHT22;528;47.872;11.478;2022-08-21T04:59:14;15.60;99.90
1079;DHT22;528;47.872;11.478;2022-08-21T05:01:50;15.60;99.90
1079;DHT22;528;47.872;11.478;2022-08-21T05:16:10;15.70;99.90
1079;DHT22;528;47.872;11.478;2022-08-21T05:18:43;15.80;99.90
1079;DHT22;528;47.872;11.478;2022-08-21T05:21:47;15.80;99.90
1079;DHT22;528;47.872;11.478;2022-08-21T05:24:28;15.90;99.90
1079;DHT22;528;47.872;11.478;2022-08-21T05:27:24;15.90;99.90
1079;DHT22;528;47.872;11.478;2022-08-21T05:30:39;16.10;99.90
1079;DHT22;528;47.872;11.478;2022-08-21T05:33:22;16.10;99.90
1079;DHT22;528;47.872;11.478;2022-08-21T05:36:02;16.10;99.90
1079;DHT22;528;47.872;11.478;2022-08-21T05:38:38;16.20;99.90
1079;DHT22;528;47.872;11.478;2022-08-21T05:41:20;16.30;99.90
1079;DHT22;528;47.872;11.478;2022-08-21T05:47:31;16.30;99.90
1079;DHT22;528;47.872;11.478;2022-08-21T05:50:31;16.40;99.90
1079;DHT22;528;47.872;11.478;2022-08-21T05:53:14;16.40;99.90
1079;DHT22;528;47.872;11.478;2022-08-21T05:55:58;16.40;99.90
1079;DHT22;528;47.872;11.478;2022-08-21T05:58:26;16.40;99.90
1079;DHT22;528;47.872;11.478;2022-08-21T06:01:01;16.40;99.90
1079;DHT22;528;47.872;11.478;2022-08-21T06:03:35;16.40;99.90
1079;DHT22;528;47.872;11.478;2022-08-21T06:06:05;16.50;99.90
1079;DHT22;528;47.872;11.478;2022-08-21T06:08:33;16.50;99.90
1079;DHT22;528;47.872;11.478;2022-08-21T06:11:06;16.60;99.90
1079;DHT22;528;47.872;11.478;2022-08-21T06:13:36;16.60;99.90
1079;DHT22;528;47.872;11.478;2022-08-21T06:16:07;16.70;99.90
1079;DHT22;528;47.872;11.478;2022-08-21T06:18:36;16.70;99.90
1079;DHT22;528;47.872;11.478;2022-08-21T06:21:18;16.70;99.90
1079;DHT22;528;47.872;11.478;2022-08-21T06:23:47;16.70;99.90
1079;DHT22;528;47.872;11.478;2022-08-21T06:26:19;16.90;99.90
1079;DHT22;528;47.872;11.478;2022-08-21T06:28:50;17.00;99.90
1079;DHT22;528;47.872;11.478;2022-08-21T06:31:20;17.00;99.90
1079;DHT22;528;47.872;11.478;2022-08-21T06:33:50;17.10;99.90
1079;DHT22;528;47.872;11.478;2022-08-21T06:36:20;17.10;99.90
1079;DHT22;528;47.872;11.478;2022-08-21T06:38:48;17.20;99.90
1079;DHT22;528;47.872;11.478;2022-08-21T06:41:15;17.20;99.90
1079;DHT22;528;47.872;11.478;2022-08-21T06:43:48;17.20;99.90
1079;DHT22;528;47.872;11.478;2022-08-21T06:46:22;17.20;99.90
1079;DHT22;528;47.872;11.478;2022-08-21T06:48:53;17.30;99.90
1079;DHT22;528;47.872;11.478;2022-08-21T06:51:28;17.40;99.90
1079;DHT22;528;47.872;11.478;2022-08-21T06:54:10;17.60;99.90
1079;DHT22;528;47.872;11.478;2022-08-21T06:56:43;17.60;99.90
1079;DHT22;528;47.872;11.478;2022-08-21T06:59:20;17.80;99.90
1079;DHT22;528;47.872;11.478;2022-08-21T07:01:53;18.00;99.90
1079;DHT22;528;47.872;11.478;2022-08-21T07:04:23;18.10;99.90
1079;DHT22;528;47.872;11.478;2022-08-21T07:07:01;18.30;99.90
1079;DHT22;528;47.872;11.478;2022-08-21T07:12:29;18.40;99.90
1079;DHT22;528;47.872;11.478;2022-08-21T07:15:05;18.70;99.90
1079;DHT22;528;47.872;11.478;2022-08-21T07:18:04;18.90;99.90
1079;DHT22;528;47.872;11.478;2022-08-21T07:20:44;19.20;99.90
1079;DHT22;528;47.872;11.478;2022-08-21T07:33:40;20.00;99.90
1079;DHT22;528;47.872;11.478;2022-08-21T07:36:26;20.10;99.90
1079;DHT22;528;47.872;11.478;2022-08-21T07:39:08;20.30;99.90
1079;DHT22;528;47.872;11.478;2022-08-21T07:41:43;20.50;99.90
1079;DHT22;528;47.872;11.478;2022-08-21T08:35:03;22.60;99.90
1079;DHT22;528;47.872;11.478;2022-08-21T08:38:17;22.80;99.90
1079;DHT22;528;47.872;11.478;2022-08-21T08:59:35;23.50;99.90
1079;DHT22;528;47.872;11.478;2022-08-21T09:02:04;23.60;99.90
1079;DHT22;528;47.872;11.478;2022-08-21T09:04:39;23.60;99.90
1079;DHT22;528;47.872;11.478;2022-08-21T09:07:16;23.60;99.90
1079;DHT22;528;47.872;11.478;2022-08-21T09:09:56;23.60;99.90
1079;DHT22;528;47.872;11.478;2022-08-21T09:12:35;23.60;99.90
1079;DHT22;528;47.872;11.478;2022-08-21T09:15:12;23.60;99.90
1079;DHT22;528;47.872;11.478;2022-08-21T09:17:59;23.50;99.90
1079;DHT22;528;47.872;11.478;2022-08-21T21:27:01;17.20;99.90
1079;DHT22;528;47.872;11.478;2022-08-21T21:29:36;17.10;99.90
1079;DHT22;528;47.872;11.478;2022-08-21T21:32:06;17.10;99.90
1079;DHT22;528;47.872;11.478;2022-08-21T21:34:36;17.00;99.90
1079;DHT22;528;47.872;11.478;2022-08-21T21:37:06;17.10;99.90
1079;DHT22;528;47.872;11.478;2022-08-21T21:39:41;17.10;99.90
1079;DHT22;528;47.872;11.478;2022-08-21T21:42:20;17.10;99.90
1079;DHT22;528;47.872;11.478;2022-08-21T21:45:07;17.10;99.90
1079;DHT22;528;47.872;11.478;2022-08-21T21:47:59;17.10;99.90
1079;DHT22;528;47.872;11.478;2022-08-21T21:50:50;16.90;99.90
1079;DHT22;528;47.872;11.478;2022-08-21T21:53:33;16.80;99.90
1079;DHT22;528;47.872;11.478;2022-08-21T21:56:30;16.80;99.90
1079;DHT22;528;47.872;11.478;2022-08-21T21:59:56;16.80;99.90
1079;DHT22;528;47.872;11.478;2022-08-21T22:03:01;16.70;99.90
1079;DHT22;528;47.872;11.478;2022-08-21T22:06:03;16.70;99.90
1079;DHT22;528;47.872;11.478;2022-08-21T22:09:22;16.70;99.90
1079;DHT22;528;47.872;11.478;2022-08-21T22:12:59;16.60;99.90
1079;DHT22;528;47.872;11.478;2022-08-21T22:15:45;16.60;99.90
1079;DHT22;528;47.872;11.478;2022-08-21T22:18:48;16.60;99.90
1079;DHT22;528;47.872;11.478;2022-08-21T22:38:45;16.10;99.90
1079;DHT22;528;47.872;11.478;2022-08-21T22:41:52;16.10;99.90
1079;DHT22;528;47.872;11.478;2022-08-21T22:45:05;16.10;99.90
1079;DHT22;528;47.872;11.478;2022-08-21T22:49:20;16.10;99.90
1079;DHT22;528;47.872;11.478;2022-08-21T22:55:03;16.00;99.90
1079;DHT22;528;47.872;11.478;2022-08-21T22:58:19;16.00;99.90
1079;DHT22;528;47.872;11.478;2022-08-21T23:01:35;16.00;99.90
1079;DHT22;528;47.872;11.478;2022-08-21T23:04:37;15.90;99.90
1079;DHT22;528;47.872;11.478;2022-08-21T23:07:45;15.90;99.90
1079;DHT22;528;47.872;11.478;2022-08-21T23:14:32;15.90;99.90
1079;DHT22;528;47.872;11.478;2022-08-21T23:17:54;15.80;99.90
1079;DHT22;528;47.872;11.478;2022-08-21T23:20:54;15.80;99.90
1079;DHT22;528;47.872;11.478;2022-08-21T23:23:48;15.70;99.90
1079;DHT22;528;47.872;11.478;2022-08-21T23:30:34;15.70;99.90
1079;DHT22;528;47.872;11.478;2022-08-21T23:33:24;15.70;99.90
1079;DHT22;528;47.872;11.478;2022-08-21T23:36:08;15.60;99.90
1079;DHT22;528;47.872;11.478;2022-08-21T23:39:21;15.50;99.90
1079;DHT22;528;47.872;11.478;2022-08-21T23:42:01;15.50;99.90
1079;DHT22;528;47.872;11.478;2022-08-21T23:44:52;15.40;99.90
1079;DHT22;528;47.872;11.478;2022-08-21T23:48:22;15.40;99.90
1079;DHT22;528;47.872;11.478;2022-08-21T23:51:18;15.40;99.90
1079;DHT22;528;47.872;11.478;2022-08-21T23:54:32;15.40;99.90
1079;DHT22;528;47.872;11.478;2022-08-21T23:57:48;15.40;99.90
